Steptoe Valley North, Nevada Weather observations

Data are for 10 minute period ending at time listed.
 Day   Time   Solar   Ave.   Ave.  Ave.  Vector  Max.   Baro.   Total    
  of    of     Rad.   Air    Rel.  Wind   Wind   Wind  Press.  Precip.   
Year   Day            Temp.  Hum.  Speed  Dir.   Gust                    
2014   (PST)  Kw/m2    F      %     mph   deg.    mph    mb.     in.     
-------------------------------------------------------------------------
 293   19:00   0.00   55.0    43    6.3   204    10.5   816.8    0.00 
 293   19:10   0.00   53.4    44    6.5   204     9.3   816.8    0.00 
 293   19:20   0.00   54.1    42    5.8   224     8.0   816.8    0.00 
 293   19:30   0.00   51.9    46    4.7   218     6.1   816.6    0.00 
 293   19:40   0.00   51.1    48    4.4   220     5.6   816.5    0.00 
 293   19:50   0.00   51.4    47    5.0   221     5.7   816.5    0.00 
 293   20:00   0.00   51.6    47    4.0   222     5.3   816.5    0.00 
 293   20:10   0.00   51.8    47    3.7   219     5.1   816.5    0.00 
 293   20:20   0.00   53.0    46    6.7   220     9.9   816.5    0.00 
 293   20:30   0.00   54.6    43    7.6   222    10.2   816.6    0.00 
 293   20:40   0.00   55.1    42    7.1   217     9.4   816.7    0.00 
 293   20:50   0.00   55.4    42    7.1   191     9.2   816.7    0.00 
 293   21:00   0.00   55.3    44    6.5   188     9.4   816.7    0.00 
 293   21:10   0.00   55.1    46    6.4   184    13.4   816.7    0.00 
 293   21:20   0.00   58.0    41   10.7   194    14.2   816.7    0.00 
 293   21:30   0.00   58.6    40   10.3   197    16.2   816.8    0.00 
 293   21:40   0.00   59.5    39   12.0   194    17.1   816.8    0.00 
 293   21:50   0.00   59.6    39    9.8   203    16.5   816.8    0.00 
 293   22:00   0.00   56.6    42    7.1   224    10.6   816.9    0.00 
 293   22:10   0.00   56.8    43    7.4   219    10.7   816.7    0.00 
 293   22:20   0.00   55.6    44    5.8   221     7.7   816.6    0.00 
 293   22:30   0.00   54.6    46    5.7   208    10.7   816.5    0.00 
 293   22:40   0.00   56.5    44   12.4   188    16.7   816.3    0.00 
 293   22:50   0.00   57.4    43   11.9   195    17.8   816.3    0.00 
 293   23:00   0.00   57.5    43   13.7   197    21.3   816.3    0.00 
 293   23:10   0.00   57.5    43   14.6   195    20.2   816.3    0.00 
 293   23:20   0.00   57.3    43   13.0   200    19.8   816.3    0.00 
 293   23:30   0.00   56.7    45   13.8   196    20.0   816.2    0.00 
 293   23:40   0.00   56.9    45   15.1   192    22.3   816.1    0.00 
 293   23:50   0.00   57.0    45   14.7   193    20.3   815.9    0.00 
 294    0:00   0.00   57.2    44   14.2   197    19.5   815.9    0.00 
 294    0:10   0.00   57.8    43   16.1   199    22.2   815.9    0.00 
 294    0:20   0.00   57.6    44   14.3   200    19.9   816.0    0.00 
 294    0:30   0.00   57.2    44   12.9   203    19.8   816.0    0.00 
 294    0:40   0.00   55.5    47    8.4   214    13.7   816.0    0.00 
 294    0:50   0.00   51.2    53    5.6   228     8.7   816.0    0.00 
 294    1:00   0.00   51.6    54    7.6   241    11.9   815.9    0.00 
 294    1:10   0.00   52.5    52    8.5   225    12.3   815.9    0.00 
 294    1:20   0.00   52.1    54    9.9   218    13.6   815.9    0.00 
 294    1:30   0.00   53.8    51   12.7   212    17.8   815.9    0.00 
 294    1:40   0.00   54.0    50   12.1   205    16.0   815.9    0.00 
 294    1:50   0.00   52.1    53   10.2   206    12.9   815.9    0.00 
 294    2:00   0.00   50.5    56    8.3   209    10.5   815.9    0.00 
 294    2:10   0.00   50.0    57    8.7   208    11.4   815.9    0.00 
 294    2:20   0.00   50.3    57    9.2   201    12.3   815.9    0.00 
 294    2:30   0.00   49.4    59    8.0   191    10.9   815.9    0.00 
 294    2:40   0.00   47.6    63    7.0   198    10.6   815.9    0.00 
 294    2:50   0.00   50.9    57   12.1   207    19.1   815.9    0.00 
 294    3:00   0.00   53.7    51   15.6   205    21.7   815.9    0.00 
 294    3:10   0.00   53.9    51   15.7   205    21.4   815.9    0.00 
 294    3:20   0.00   53.4    52   14.9   204    20.4   815.9    0.00 
 294    3:30   0.00   53.7    51   16.5   205    22.1   816.0    0.00 
 294    3:40   0.00   53.5    52   16.4   212    21.5   816.1    0.00 
 294    3:50   0.00   53.4    52   16.9   214    24.7   816.1    0.00 
 294    4:00   0.00   53.8    51   17.7   212    24.5   816.2    0.00 
 294    4:10   0.00   53.9    50   16.2   232    22.4   816.3    0.00 
 294    4:20   0.00   53.4    48   14.9   251    20.1   816.5    0.00 
 294    4:30   0.00   52.7    45   17.3   251    23.4   816.5    0.00 
 294    4:40   0.00   52.3    43   17.5   245    24.1   816.5    0.00 
 294    4:50   0.00   52.2    42   19.5   245    26.7   816.5    0.00 
 294    5:00   0.00   52.2    42   18.1   246    23.2   816.7    0.00 
 294    5:10   0.00   51.9    42   16.5   253    22.4   817.0    0.00 
 294    5:20   0.00   51.3    42   15.4   250    22.1   817.2    0.00 
 294    5:30   0.00   51.5    42   16.5   245    23.0   817.4    0.00 
 294    5:40   0.00   51.3    42   13.5   242    21.5   817.6    0.00 
 294    5:50   0.00   50.3    43    9.6   226    15.1   817.8    0.00 
 294    6:00   0.00   50.6    42   10.0   231    19.7   818.0    0.00 
 294    6:10   0.01   48.9    46    5.8   212     9.0   818.1    0.00 
 294    6:20   0.04   49.1    45    6.8   232    11.7   818.1    0.00 
 294    6:30   0.06   49.0    46    6.0   218    10.2   818.1    0.00 
 294    6:40   0.09   48.6    48    7.1   232     9.2   818.1    0.00 
 294    6:50   0.09   49.2    47    4.6   200     7.2   818.4    0.00 
 294    7:00   0.16   49.6    48    6.6   178    10.2   818.6    0.00 
 294    7:10   0.20   51.3    45    7.5   189    12.3   818.6    0.00 
 294    7:20   0.24   52.6    44    9.0   180    12.7   818.8    0.00 
 294    7:30   0.30   54.2    40    7.7   182    12.9   819.0    0.00 
 294    7:40   0.37   56.1    36    3.5   224    11.3   819.2    0.00 
 294    7:50   0.36   56.1    35    9.8   193    21.8   819.3    0.00 
 294    8:00   0.37   55.6    35    9.1   204    15.0   819.4    0.00 
 294    8:10   0.45   56.0    34    8.4   201    16.6   819.6    0.00 
 294    8:20   0.47   56.4    35   13.8   184    22.0   819.6    0.00 
 294    8:30   0.47   56.4    35   12.7   184    18.3   819.5    0.00 
 294    8:40   0.49   56.6    30   14.6   191    21.0   819.5    0.00 
 294    8:50   0.52   57.1    27   12.2   185    25.4   819.6    0.00 
 294    9:00   0.54   58.1    25    8.6   168    14.7   819.6    0.00 
 294    9:10   0.56   58.3    24    9.9   204    17.1   819.6    0.00 
 294    9:20   0.57   58.3    22    5.7   142    10.3   819.7    0.00 
 294    9:30   0.59   57.9    24    6.7   357    12.9   819.6    0.00 
 294    9:40   0.61   57.5    25    8.8   352    15.2   819.6    0.00 
 294    9:50   0.62   58.0    23    5.4   330    14.8   819.7    0.00 
 294   10:00   0.64   58.2    22    7.4    18    12.4   819.8    0.00 
 294   10:10   0.66   58.3    22    4.8    15    10.2   819.9    0.00 
 294   10:20   0.68   58.6    21   10.2   223    23.3   819.9    0.00 
 294   10:30   0.69   58.6    23   13.1   205    19.9   820.0    0.00 
 294   10:40   0.69   58.5    22   14.3   196    19.4   819.9    0.00 
 294   10:50   0.70   58.6    22   13.5   184    19.8   819.8    0.00 
 294   11:00   0.73   59.2    21   10.8   190    19.0   819.8    0.00 
 294   11:10   0.60   59.3    19    8.3   173    20.0   819.8    0.00 
 294   11:20   0.52   59.0    19    6.1   174    15.9   819.6    0.00 
 294   11:30   0.38   58.4    18    4.5   267    11.9   819.6    0.00 
 294   11:40   0.74   59.1    18    4.5   268     9.9   819.6    0.00 
 294   11:50   0.42   59.1    17    3.7   267     8.4   819.5    0.00 
 294   12:00   0.54   59.0    20    7.6   222    15.9   819.4    0.00 
 294   12:10   0.59   60.0    19    6.3   255    10.4   819.5    0.00 
 294   12:20   0.53   59.7    17    3.8   284     7.7   819.4    0.00 
 294   12:30   0.54   59.8    17    7.3   266    13.7   819.4    0.00 
 294   12:40   0.54   59.5    16   12.2   285    19.2   819.4    0.00 
 294   12:50   0.32   58.3    16   10.3   273    15.6   819.4    0.00 
 294   13:00   0.61   59.2    15   12.5   262    18.0   819.5    0.00 
 294   13:10   0.61   59.7    16   11.5   258    18.3   819.6    0.00 
 294   13:20   0.45   58.9    16    8.7   259    15.8   819.6    0.00 
 294   13:30   0.59   59.0    17    9.0   263    15.6   819.6    0.00 
 294   13:40   0.56   59.0    16   10.0   258    16.3   819.6    0.00 
 294   13:50   0.55   59.3    18    9.6   237    16.4   819.7    0.00 
 294   14:00   0.51   59.1    17    9.3   252    15.8   819.6    0.00 
 294   14:10   0.48   58.7    16    8.9   261    15.8   819.6    0.00 
 294   14:20   0.45   58.8    14    6.5   247    14.5   819.7    0.00 
 294   14:30   0.43   58.6    16    9.1   236    15.2   819.8    0.00 
 294   14:40   0.32   58.9    17    7.7   215    12.7   819.8    0.00 
 294   14:50   0.18   56.5    18   11.3   208    16.7   819.8    0.00 
 294   15:00   0.14   55.7    20    7.3   199    11.0   819.7    0.00 
 294   15:10   0.12   55.1    20    8.5   198    13.3   819.6    0.00 
 294   15:20   0.11   53.8    24    6.7   192     9.2   819.6    0.00 
 294   15:30   0.23   55.0    23    5.4   201     8.8   819.7    0.00 
 294   15:40   0.28   58.5    18    7.2   194    12.1   819.7    0.00 
 294   15:50   0.22   58.8    18    6.6   207     9.3   819.7    0.00 
 294   16:00   0.16   57.7    19    5.8   232    13.0   819.7    0.00 
 294   16:10   0.12   57.1    19    3.2   271     7.5   819.8    0.00 
 294   16:20   0.09   56.6    17    3.4   240     6.6   819.8    0.00 
 294   16:30   0.03   56.5    18    1.3   195     3.1   820.0    0.00 
 294   16:40   0.01   52.1    21    2.3    25     6.9   819.9    0.00 
 294   16:50   0.01   49.3    26    5.0    10     7.0   819.8    0.00 
 294   17:00   0.00   47.0    29    7.0   332     9.6   819.7    0.00 
 294   17:10   0.00   45.9    30    6.3   341     9.1   819.8    0.00 
 294   17:20   0.00   42.8    36    4.7    25     6.6   819.9    0.00 
 294   17:30   0.00   41.5    37    5.7    47     7.1   820.1    0.00 
 294   17:40   0.00   43.7    32    6.5    37     9.6   820.3    0.00 
 294   17:50   0.00   45.6    28    7.3   354    11.1   820.4    0.00 
 294   18:00   0.00   45.7    29    7.2     2    10.1   820.4    0.00 
 294   18:10   0.00   43.0    32    5.8    58     8.0   820.5    0.00 
 294   18:20   0.00   42.9    32    4.9    74     6.9   820.6    0.00 
 294   18:30   0.00   43.5    30    4.4    68     6.7   820.7    0.00 
 294   18:40   0.00   41.0    36    5.6    56     7.2   820.8    0.00 
 294   18:50   0.00   39.6    36    5.7    65     7.0   821.0    0.00 

Return to Steptoe Valley North graphs page.


Western Regional Climate Center,wrcc@dri.edu